Time;durP1;ratioP1;P1;durP2;ratioP2;P2;SDS_P1;SDS_P2;PMS_P1;PMS_P2;Temp;Humidity;BMP_temperature;BMP_pressure;BME280_temperature;BME280_humidity;BME280_pressure;Samples;Min_cycle;Max_cycle;Signal;HPM_P1;HPM_P2
2022/07/05 00:01:46;;;;;;;2.28;1.30;;;;;;;;;;5011212;28;20195;-40
2022/07/05 00:04:13;;;;;;;2.35;1.17;;;;;;;;;;5017558;28;20223;-41
2022/07/05 00:07:17;;;;;;;1.20;1.10;;;;;;;;;;5011388;28;20219;-37
2022/07/05 00:09:29;;;;;;;1.10;1.10;;;;;;;;;;5011561;28;20230;-40
2022/07/05 00:11:57;;;;;;;1.20;1.20;;;;;;;;;;5010307;28;20210;-42
2022/07/05 00:14:24;;;;;;;1.30;1.20;;;;;;;;;;5015756;28;20203;-39
2022/07/05 00:16:51;;;;;;;1.30;1.20;;;;;;;;;;5014341;28;20215;-39
2022/07/05 00:19:18;;;;;;;1.33;1.30;;;;;;;;;;5013744;28;20221;-37
2022/07/05 00:21:47;;;;;;;2.23;1.20;;;;;;;;;;5029812;28;20198;-42
2022/07/05 00:24:14;;;;;;;1.30;1.30;;;;;;;;;;5031193;28;20214;-40
2022/07/05 00:26:41;;;;;;;1.70;1.60;;;;;;;;;;5030811;28;20233;-40
2022/07/05 00:29:08;;;;;;;1.97;1.40;;;;;;;;;;5022298;28;20206;-40
2022/07/05 00:31:35;;;;;;;2.03;1.30;;;;;;;;;;5021866;28;20201;-43
2022/07/05 00:34:02;;;;;;;1.27;1.15;;;;;;;;;;5024407;28;20190;-41
2022/07/05 00:36:30;;;;;;;1.75;1.30;;;;;;;;;;5021595;28;20222;-39
2022/07/05 00:38:58;;;;;;;2.00;1.43;;;;;;;;;;5022248;28;20202;-38
2022/07/05 00:41:25;;;;;;;1.37;1.20;;;;;;;;;;5027937;28;20213;-43
2022/07/05 00:43:54;;;;;;;1.73;1.50;;;;;;;;;;5018192;28;20202;-37
2022/07/05 00:46:21;;;;;;;1.37;1.23;;;;;;;;;;5023518;28;20214;-42
2022/07/05 00:48:48;;;;;;;2.83;1.27;;;;;;;;;;5020713;28;20206;-41
2022/07/05 00:51:15;;;;;;;2.23;1.20;;;;;;;;;;5020465;28;20209;-39
2022/07/05 00:53:43;;;;;;;5.83;1.53;;;;;;;;;;5030010;28;20201;-40
2022/07/05 00:56:11;;;;;;;3.53;1.30;;;;;;;;;;5031058;28;20244;-39
2022/07/05 00:58:38;;;;;;;1.70;1.60;;;;;;;;;;5023981;28;20447;-41
2022/07/05 01:01:07;;;;;;;2.23;1.40;;;;;;;;;;5016340;28;20214;-42
2022/07/05 01:03:34;;;;;;;1.50;1.30;;;;;;;;;;5014804;28;20198;-38
2022/07/05 01:06:02;;;;;;;2.00;1.47;;;;;;;;;;5026448;28;20226;-36
2022/07/05 01:08:30;;;;;;;1.30;1.27;;;;;;;;;;5017028;28;20560;-42
2022/07/05 01:10:57;;;;;;;4.07;1.50;;;;;;;;;;5010994;28;20199;-41
2022/07/05 01:13:26;;;;;;;1.13;1.13;;;;;;;;;;5014057;28;20208;-41
2022/07/05 01:15:53;;;;;;;1.77;1.50;;;;;;;;;;5027376;28;20198;-37
2022/07/05 01:18:20;;;;;;;1.57;1.30;;;;;;;;;;5012095;28;20210;-37
2022/07/05 01:20:48;;;;;;;1.60;1.30;;;;;;;;;;5013176;28;20199;-41
2022/07/05 01:23:17;;;;;;;1.30;1.20;;;;;;;;;;5028755;28;20201;-40
2022/07/05 01:25:46;;;;;;;1.40;1.30;;;;;;;;;;5022536;28;20226;-38
2022/07/05 01:28:13;;;;;;;1.93;1.50;;;;;;;;;;5016894;28;20304;-39
2022/07/05 01:30:40;;;;;;;1.57;1.47;;;;;;;;;;5014453;28;20214;-40
2022/07/05 01:33:08;;;;;;;1.87;1.40;;;;;;;;;;5016433;28;20207;-41
2022/07/05 01:35:36;;;;;;;4.07;1.50;;;;;;;;;;5015294;28;20208;-42
2022/07/05 01:38:04;;;;;;;2.03;1.40;;;;;;;;;;5024690;28;20229;-40
2022/07/05 01:40:32;;;;;;;2.37;1.40;;;;;;;;;;5018589;28;20202;-39
2022/07/05 01:43:00;;;;;;;3.47;1.50;;;;;;;;;;5011649;28;20293;-40
2022/07/05 01:45:39;;;;;;;2.00;1.47;;;;;;;;;;5020454;28;20681;-40
2022/07/05 01:48:08;;;;;;;1.30;1.20;;;;;;;;;;5025536;28;20226;-37
2022/07/05 01:50:36;;;;;;;1.30;1.20;;;;;;;;;;5023692;28;20198;-41
2022/07/05 01:53:06;;;;;;;2.60;1.30;;;;;;;;;;5013522;28;20206;-39
2022/07/05 01:55:35;;;;;;;2.80;1.60;;;;;;;;;;5024101;28;20202;-40
2022/07/05 01:58:02;;;;;;;1.30;1.30;;;;;;;;;;5014814;28;20233;-41
2022/07/05 02:00:29;;;;;;;1.10;1.10;;;;;;;;;;5018733;28;20206;-40
2022/07/05 02:02:57;;;;;;;1.87;1.40;;;;;;;;;;5026875;28;20201;-41
2022/07/05 02:05:24;;;;;;;1.63;1.53;;;;;;;;;;5025674;28;20221;-42
2022/07/05 02:07:51;;;;;;;1.50;1.30;;;;;;;;;;5028441;28;20232;-42
2022/07/05 02:10:19;;;;;;;4.67;1.93;;;;;;;;;;5018813;28;20206;-41
2022/07/05 02:12:47;;;;;;;3.23;1.77;;;;;;;;;;5009499;28;20216;-41
2022/07/05 02:15:14;;;;;;;1.87;1.50;;;;;;;;;;5027217;28;20198;-40
2022/07/05 02:17:41;;;;;;;1.97;1.50;;;;;;;;;;5031813;28;20214;-42
2022/07/05 02:20:09;;;;;;;1.50;1.30;;;;;;;;;;5017466;28;20218;-37
2022/07/05 02:22:36;;;;;;;1.20;1.20;;;;;;;;;;5019235;28;20547;-41
2022/07/05 02:25:03;;;;;;;4.03;1.47;;;;;;;;;;5021308;28;20222;-39
2022/07/05 02:27:30;;;;;;;1.63;1.50;;;;;;;;;;5026301;28;20236;-43
2022/07/05 02:30:00;;;;;;;2.90;1.90;;;;;;;;;;5027770;28;20301;-40
2022/07/05 02:32:27;;;;;;;5.17;1.77;;;;;;;;;;5021978;28;20230;-43
2022/07/05 02:34:54;;;;;;;2.30;1.43;;;;;;;;;;5013895;28;20196;-41
2022/07/05 02:37:21;;;;;;;1.97;1.63;;;;;;;;;;5011426;28;20238;-39
2022/07/05 02:42:16;;;;;;;1.70;1.60;;;;;;;;;;5027700;28;20293;-37
2022/07/05 02:44:43;;;;;;;3.83;1.47;;;;;;;;;;5020393;28;20199;-44
2022/07/05 02:47:12;;;;;;;2.97;1.70;;;;;;;;;;5031965;28;20228;-40
2022/07/05 02:49:39;;;;;;;1.70;1.60;;;;;;;;;;5028137;28;20218;-38
2022/07/05 02:52:06;;;;;;;1.60;1.50;;;;;;;;;;5039904;28;20217;-35
2022/07/05 02:54:33;;;;;;;2.40;1.80;;;;;;;;;;5035465;28;20200;-40
2022/07/05 02:57:01;;;;;;;3.63;1.57;;;;;;;;;;5029321;28;20225;-35
2022/07/05 02:59:28;;;;;;;1.90;1.70;;;;;;;;;;5038422;28;20201;-33
2022/07/05 03:01:55;;;;;;;2.23;1.23;;;;;;;;;;5045239;28;20288;-38
2022/07/05 03:04:23;;;;;;;3.67;1.20;;;;;;;;;;5031199;28;20221;-42
2022/07/05 03:06:50;;;;;;;2.37;1.57;;;;;;;;;;5035190;28;20225;-43
2022/07/05 03:09:17;;;;;;;2.20;1.40;;;;;;;;;;5035250;28;20199;-43
2022/07/05 03:11:44;;;;;;;1.90;1.63;;;;;;;;;;5035701;28;20205;-41
2022/07/05 03:14:12;;;;;;;1.90;1.70;;;;;;;;;;5032839;28;20232;-39
2022/07/05 03:16:39;;;;;;;4.53;1.50;;;;;;;;;;5050566;28;20220;-34
2022/07/05 03:19:06;;;;;;;1.77;1.50;;;;;;;;;;5029969;28;20214;-35
2022/07/05 03:21:34;;;;;;;2.53;1.63;;;;;;;;;;5049049;28;20197;-40
2022/07/05 03:24:01;;;;;;;1.77;1.67;;;;;;;;;;5036919;28;20217;-40
2022/07/05 03:26:29;;;;;;;2.50;1.83;;;;;;;;;;5036023;28;20237;-35
2022/07/05 03:28:56;;;;;;;2.20;1.40;;;;;;;;;;5034393;28;20205;-37
2022/07/05 03:31:23;;;;;;;3.90;1.70;;;;;;;;;;5043104;28;20212;-35
2022/07/05 03:33:50;;;;;;;2.37;1.60;;;;;;;;;;5032598;28;20213;-38
2022/07/05 03:36:17;;;;;;;1.80;1.70;;;;;;;;;;5033752;28;20225;-38
2022/07/05 03:38:46;;;;;;;1.97;1.50;;;;;;;;;;5042053;28;20208;-37
2022/07/05 03:41:13;;;;;;;2.37;1.83;;;;;;;;;;5055606;28;20206;-36
2022/07/05 03:43:40;;;;;;;1.47;1.37;;;;;;;;;;5056185;28;20209;-38
2022/07/05 03:46:07;;;;;;;2.50;1.70;;;;;;;;;;5049186;28;20234;-36
2022/07/05 03:48:34;;;;;;;2.13;1.77;;;;;;;;;;5041598;28;20207;-34
2022/07/05 03:51:02;;;;;;;6.13;1.90;;;;;;;;;;5044485;28;20209;-37
2022/07/05 03:53:29;;;;;;;1.53;1.43;;;;;;;;;;5050103;28;20200;-36
2022/07/05 03:55:57;;;;;;;2.87;1.70;;;;;;;;;;5035613;28;20213;-38
2022/07/05 03:58:24;;;;;;;4.23;1.90;;;;;;;;;;5033229;28;20203;-40
2022/07/05 04:00:52;;;;;;;5.67;2.00;;;;;;;;;;5035441;28;20212;-39
2022/07/05 04:03:19;;;;;;;3.27;1.60;;;;;;;;;;5037556;28;20202;-35
2022/07/05 04:05:46;;;;;;;1.80;1.70;;;;;;;;;;5031003;28;20224;-34
2022/07/05 04:08:13;;;;;;;3.13;1.70;;;;;;;;;;5034879;28;20206;-35
2022/07/05 04:10:40;;;;;;;1.80;1.70;;;;;;;;;;5033454;28;20202;-41
2022/07/05 04:13:09;;;;;;;3.70;1.47;;;;;;;;;;5029130;28;20210;-36
2022/07/05 04:15:37;;;;;;;2.80;1.60;;;;;;;;;;5035260;28;20205;-34
2022/07/05 04:18:04;;;;;;;1.77;1.67;;;;;;;;;;5033382;28;20225;-34
2022/07/05 04:20:31;;;;;;;1.80;1.53;;;;;;;;;;5026925;28;20199;-39
2022/07/05 04:22:58;;;;;;;1.60;1.50;;;;;;;;;;5037061;28;20208;-37
2022/07/05 04:25:25;;;;;;;1.60;1.50;;;;;;;;;;5034807;28;20229;-35
2022/07/05 04:27:53;;;;;;;1.70;1.60;;;;;;;;;;5027166;28;20275;-36
2022/07/05 04:30:23;;;;;;;1.80;1.70;;;;;;;;;;5035069;28;20228;-42
2022/07/05 04:32:50;;;;;;;3.07;1.80;;;;;;;;;;5048581;28;20204;-42
2022/07/05 04:35:18;;;;;;;1.90;1.73;;;;;;;;;;5014167;28;20201;-39
2022/07/05 04:37:45;;;;;;;1.80;1.70;;;;;;;;;;5027688;28;20224;-38
2022/07/05 04:40:13;;;;;;;3.67;1.73;;;;;;;;;;5033518;28;20210;-34
2022/07/05 04:42:41;;;;;;;1.50;1.40;;;;;;;;;;5031810;28;20206;-34
2022/07/05 04:45:09;;;;;;;1.80;1.70;;;;;;;;;;5032486;28;20209;-34
2022/07/05 04:47:37;;;;;;;1.87;1.77;;;;;;;;;;5033578;28;20217;-36
2022/07/05 04:50:05;;;;;;;1.97;1.80;;;;;;;;;;5018533;28;20209;-39
2022/07/05 04:52:32;;;;;;;1.70;1.60;;;;;;;;;;5041478;28;20204;-34
2022/07/05 04:54:59;;;;;;;4.10;1.80;;;;;;;;;;5040466;28;20208;-36
2022/07/05 04:57:27;;;;;;;2.77;1.80;;;;;;;;;;5015193;28;20232;-33
2022/07/05 04:59:54;;;;;;;2.70;1.83;;;;;;;;;;5021666;28;20206;-37
2022/07/05 05:02:21;;;;;;;2.70;2.03;;;;;;;;;;5037708;28;20197;-34
2022/07/05 05:04:49;;;;;;;3.03;1.87;;;;;;;;;;5022177;28;20200;-39
2022/07/05 05:07:17;;;;;;;2.43;2.20;;;;;;;;;;5036429;28;20260;-38
2022/07/05 05:09:44;;;;;;;2.10;1.90;;;;;;;;;;5053512;28;20276;-36
2022/07/05 05:12:11;;;;;;;2.53;2.30;;;;;;;;;;5028856;28;20210;-36
2022/07/05 05:14:38;;;;;;;2.93;2.10;;;;;;;;;;5031743;28;20223;-38
2022/07/05 05:17:05;;;;;;;2.27;2.07;;;;;;;;;;5033360;28;20210;-37
2022/07/05 05:19:32;;;;;;;3.30;1.80;;;;;;;;;;5024092;28;20210;-37
2022/07/05 05:22:01;;;;;;;5.33;2.40;;;;;;;;;;5040047;28;20202;-34
2022/07/05 05:24:28;;;;;;;2.65;2.28;;;;;;;;;;5038869;28;20213;-41
2022/07/05 05:26:55;;;;;;;2.33;2.13;;;;;;;;;;5032443;28;20226;-36
2022/07/05 05:29:22;;;;;;;3.05;2.25;;;;;;;;;;5027706;28;20201;-37
2022/07/05 05:31:49;;;;;;;2.17;2.08;;;;;;;;;;5014015;28;20203;-39
2022/07/05 05:34:16;;;;;;;2.50;2.30;;;;;;;;;;5032691;28;20198;-43
2022/07/05 05:36:43;;;;;;;3.15;1.90;;;;;;;;;;5034277;28;20216;-40
2022/07/05 05:39:12;;;;;;;3.60;1.90;;;;;;;;;;5044538;28;20203;-39
2022/07/05 05:41:39;;;;;;;1.95;1.70;;;;;;;;;;5024918;28;20223;-33
2022/07/05 05:44:07;;;;;;;2.00;1.85;;;;;;;;;;5038595;28;20294;-38
2022/07/05 05:46:34;;;;;;;2.92;1.73;;;;;;;;;;5052305;28;20224;-36
2022/07/05 05:49:01;;;;;;;2.85;1.88;;;;;;;;;;5039346;28;20299;-38
2022/07/05 05:51:28;;;;;;;2.28;2.10;;;;;;;;;;5030670;28;20201;-35
2022/07/05 05:53:55;;;;;;;3.78;2.08;;;;;;;;;;5038359;28;20204;-33
2022/07/05 05:56:24;;;;;;;3.38;1.88;;;;;;;;;;5031803;28;20223;-37
2022/07/05 05:58:52;;;;;;;2.42;1.90;;;;;;;;;;5029978;28;20204;-34
2022/07/05 06:01:19;;;;;;;2.38;2.17;;;;;;;;;;5040361;28;20201;-36
2022/07/05 06:03:46;;;;;;;4.82;2.50;;;;;;;;;;5023667;28;20202;-40
2022/07/05 06:06:13;;;;;;;3.28;2.22;;;;;;;;;;5023065;28;20228;-36
2022/07/05 06:08:40;;;;;;;5.43;2.72;;;;;;;;;;5043924;28;20197;-36
2022/07/05 06:11:07;;;;;;;3.13;2.17;;;;;;;;;;5048330;28;20200;-37
2022/07/05 06:13:36;;;;;;;2.88;2.58;;;;;;;;;;5024088;28;20224;-39
2022/07/05 06:16:03;;;;;;;3.70;2.60;;;;;;;;;;5049059;28;20211;-34
2022/07/05 06:18:30;;;;;;;2.00;1.80;;;;;;;;;;5043106;28;20196;-42
2022/07/05 06:20:57;;;;;;;3.67;1.98;;;;;;;;;;5024305;28;20202;-40
2022/07/05 06:23:24;;;;;;;2.50;1.83;;;;;;;;;;5051624;28;20201;-36
2022/07/05 06:25:51;;;;;;;4.18;1.80;;;;;;;;;;5050648;28;20208;-35
2022/07/05 06:28:18;;;;;;;4.50;2.00;;;;;;;;;;5027529;28;20202;-33
2022/07/05 06:30:47;;;;;;;3.38;2.17;;;;;;;;;;5029876;28;20201;-37
2022/07/05 06:33:14;;;;;;;3.78;2.10;;;;;;;;;;5032901;28;20203;-40
2022/07/05 06:35:41;;;;;;;2.78;1.90;;;;;;;;;;5025957;28;20198;-38
2022/07/05 06:38:09;;;;;;;2.42;1.98;;;;;;;;;;5041370;28;20222;-39
2022/07/05 06:40:37;;;;;;;3.38;2.08;;;;;;;;;;5041022;28;20190;-40
2022/07/05 06:43:05;;;;;;;2.10;2.00;;;;;;;;;;5033090;28;20209;-42
2022/07/05 06:45:33;;;;;;;4.20;1.92;;;;;;;;;;5038936;28;20420;-35
2022/07/05 06:48:02;;;;;;;2.28;1.88;;;;;;;;;;5039831;28;20310;-42
2022/07/05 06:50:30;;;;;;;2.90;2.03;;;;;;;;;;5022369;28;20213;-42
2022/07/05 06:52:57;;;;;;;2.55;1.90;;;;;;;;;;5037452;28;20198;-35
2022/07/05 06:55:25;;;;;;;3.28;1.90;;;;;;;;;;5044350;28;20262;-39
2022/07/05 06:57:58;;;;;;;2.08;1.60;;;;;;;;;;5033097;28;20222;-36
2022/07/05 07:00:25;;;;;;;4.22;2.38;;;;;;;;;;5040174;28;20202;-34
2022/07/05 07:02:52;;;;;;;2.13;1.60;;;;;;;;;;5044003;28;20205;-35
2022/07/05 07:05:20;;;;;;;3.25;2.13;;;;;;;;;;5029591;28;20195;-39
2022/07/05 07:10:35;;;;;;;4.47;2.30;;;;;;;;;;4982118;28;20269;-40
2022/07/05 07:13:02;;;;;;;1.80;1.65;;;;;;;;;;5019265;28;20218;-36
2022/07/05 07:15:30;;;;;;;3.10;2.20;;;;;;;;;;5039617;28;20466;-40
2022/07/05 07:17:57;;;;;;;2.35;2.03;;;;;;;;;;5033548;28;20215;-38
2022/07/05 07:20:26;;;;;;;2.50;1.67;;;;;;;;;;5025989;28;20218;-40
2022/07/05 07:22:53;;;;;;;4.45;2.00;;;;;;;;;;5030773;28;20205;-33
2022/07/05 07:25:23;;;;;;;2.28;2.05;;;;;;;;;;5028887;28;20245;-38
2022/07/05 07:27:50;;;;;;;4.15;2.00;;;;;;;;;;5019369;28;20236;-35
2022/07/05 07:30:18;;;;;;;3.90;2.10;;;;;;;;;;5042438;28;20210;-37
2022/07/05 07:32:46;;;;;;;4.55;2.10;;;;;;;;;;5054593;28;20201;-41
2022/07/05 07:35:13;;;;;;;2.70;2.00;;;;;;;;;;5025682;28;20206;-40
2022/07/05 07:37:41;;;;;;;2.08;1.67;;;;;;;;;;5034684;28;20237;-37
2022/07/05 07:40:09;;;;;;;3.55;1.80;;;;;;;;;;5052445;28;20285;-38
2022/07/05 07:42:36;;;;;;;2.92;1.88;;;;;;;;;;5029422;28;20207;-40
2022/07/05 07:45:03;;;;;;;2.58;1.88;;;;;;;;;;5024169;28;20194;-38
2022/07/05 07:47:30;;;;;;;2.03;1.92;;;;;;;;;;5048185;28;20240;-39
2022/07/05 07:49:58;;;;;;;2.92;1.88;;;;;;;;;;5030062;28;20203;-36
2022/07/05 07:52:25;;;;;;;2.55;1.90;;;;;;;;;;5034090;28;20198;-40
2022/07/05 07:54:53;;;;;;;3.70;2.13;;;;;;;;;;5033493;28;20202;-32
2022/07/05 07:57:20;;;;;;;1.70;1.60;;;;;;;;;;5028753;28;20248;-35
2022/07/05 07:59:48;;;;;;;2.25;1.65;;;;;;;;;;5051650;28;20198;-37
2022/07/05 08:02:15;;;;;;;3.33;1.80;;;;;;;;;;5054108;28;20204;-34
2022/07/05 08:04:43;;;;;;;1.48;1.20;;;;;;;;;;5029241;28;20202;-38
2022/07/05 08:07:10;;;;;;;4.00;1.60;;;;;;;;;;5042565;28;20261;-42
2022/07/05 08:09:37;;;;;;;2.30;1.63;;;;;;;;;;5019262;28;20211;-37
2022/07/05 08:12:06;;;;;;;2.78;1.73;;;;;;;;;;5018179;28;20199;-41
2022/07/05 08:14:33;;;;;;;4.57;1.80;;;;;;;;;;5030197;28;20198;-41
2022/07/05 08:17:00;;;;;;;1.63;1.52;;;;;;;;;;5033093;28;20218;-34
2022/07/05 08:22:12;;;;;;;4.30;1.90;;;;;;;;;;5027958;28;20486;-37
2022/07/05 08:24:40;;;;;;;3.55;1.60;;;;;;;;;;5038268;28;20207;-37
2022/07/05 08:27:08;;;;;;;1.80;1.70;;;;;;;;;;5032208;28;20245;-38
2022/07/05 08:29:35;;;;;;;2.03;1.52;;;;;;;;;;5029388;28;20199;-35
2022/07/05 08:32:03;;;;;;;1.77;1.67;;;;;;;;;;5031417;28;20214;-37
2022/07/05 08:34:30;;;;;;;2.28;1.30;;;;;;;;;;5023941;28;20202;-38
2022/07/05 08:36:57;;;;;;;4.38;1.88;;;;;;;;;;5026259;28;20210;-34
2022/07/05 08:39:24;;;;;;;2.38;1.70;;;;;;;;;;5046223;28;20205;-33
2022/07/05 08:41:52;;;;;;;4.97;1.70;;;;;;;;;;5053543;28;20209;-38
2022/07/05 08:44:21;;;;;;;5.30;1.88;;;;;;;;;;5028653;28;20202;-41
2022/07/05 08:46:53;;;;;;;2.08;1.40;;;;;;;;;;5031299;28;20222;-36
2022/07/05 08:49:23;;;;;;;3.10;1.83;;;;;;;;;;5019855;28;20226;-36
2022/07/05 08:51:50;;;;;;;4.70;1.90;;;;;;;;;;5024504;28;20202;-37
2022/07/05 08:54:18;;;;;;;1.92;1.48;;;;;;;;;;5044278;28;20230;-41
2022/07/05 08:56:46;;;;;;;6.63;1.73;;;;;;;;;;5053516;28;20222;-36
2022/07/05 09:01:46;;;;;;;1.60;1.48;;;;;;;;;;5050349;28;20220;-34
2022/07/05 09:04:14;;;;;;;5.05;1.70;;;;;;;;;;5044540;28;20255;-33
2022/07/05 09:06:42;;;;;;;3.90;2.08;;;;;;;;;;5051920;28;20214;-36
2022/07/05 09:09:09;;;;;;;4.15;1.77;;;;;;;;;;5041565;28;20238;-34
2022/07/05 09:11:38;;;;;;;2.08;1.83;;;;;;;;;;5033187;28;20214;-37
2022/07/05 09:14:06;;;;;;;2.03;1.70;;;;;;;;;;5033610;28;20225;-34
2022/07/05 09:16:34;;;;;;;2.75;2.03;;;;;;;;;;5046279;28;20218;-33
2022/07/05 09:19:08;;;;;;;6.57;1.90;;;;;;;;;;5033254;28;20217;-32
2022/07/05 09:21:36;;;;;;;2.67;1.63;;;;;;;;;;5050388;28;20198;-31
2022/07/05 09:24:04;;;;;;;1.70;1.50;;;;;;;;;;5044110;28;20195;-34
2022/07/05 09:26:35;;;;;;;2.42;1.50;;;;;;;;;;5052593;28;20228;-34
2022/07/05 09:29:02;;;;;;;3.20;1.60;;;;;;;;;;5046091;28;20209;-33
2022/07/05 09:31:30;;;;;;;2.55;1.35;;;;;;;;;;5032510;28;20644;-34
2022/07/05 09:34:05;;;;;;;3.60;1.55;;;;;;;;;;5035266;28;20469;-31
2022/07/05 09:36:47;;;;;;;2.97;1.60;;;;;;;;;;5036829;28;20229;-35
2022/07/05 09:39:15;;;;;;;4.75;1.63;;;;;;;;;;5043744;28;20194;-33
2022/07/05 09:41:42;;;;;;;1.52;1.33;;;;;;;;;;5047331;28;20209;-32
2022/07/05 09:44:09;;;;;;;1.45;1.35;;;;;;;;;;5044216;28;20203;-34
2022/07/05 09:46:37;;;;;;;1.40;1.30;;;;;;;;;;5032149;28;20224;-33
2022/07/05 09:49:04;;;;;;;3.60;1.30;;;;;;;;;;5032954;28;20209;-36
2022/07/05 09:51:48;;;;;;;1.60;1.10;;;;;;;;;;5044881;28;20206;-33
2022/07/05 09:54:16;;;;;;;3.17;0.90;;;;;;;;;;5031898;28;20211;-33
2022/07/05 09:56:47;;;;;;;1.20;1.10;;;;;;;;;;5031721;28;20236;-34
2022/07/05 09:59:19;;;;;;;1.35;0.80;;;;;;;;;;5035197;28;20205;-34
2022/07/05 10:01:46;;;;;;;3.05;1.05;;;;;;;;;;5052261;28;20254;-34
2022/07/05 10:04:13;;;;;;;1.70;1.10;;;;;;;;;;5041719;28;20205;-35
2022/07/05 10:06:40;;;;;;;1.77;1.15;;;;;;;;;;5040761;28;20224;-34
2022/07/05 10:09:08;;;;;;;0.90;0.90;;;;;;;;;;5038736;28;20239;-33
2022/07/05 10:11:38;;;;;;;1.20;1.05;;;;;;;;;;5034800;28;20300;-33
2022/07/05 10:14:08;;;;;;;2.88;0.80;;;;;;;;;;5048950;28;20196;-32
2022/07/05 10:16:35;;;;;;;2.83;1.00;;;;;;;;;;5046218;28;20315;-35
2022/07/05 10:19:02;;;;;;;1.90;0.98;;;;;;;;;;5051754;28;20204;-32
2022/07/05 10:21:30;;;;;;;3.30;1.10;;;;;;;;;;5043022;28;20205;-32
2022/07/05 10:23:58;;;;;;;2.75;0.82;;;;;;;;;;5042172;28;20198;-35
2022/07/05 10:26:28;;;;;;;0.90;0.90;;;;;;;;;;5038978;28;20227;-37
2022/07/05 10:28:57;;;;;;;2.42;0.90;;;;;;;;;;5039809;28;20235;-30
2022/07/05 10:31:25;;;;;;;1.55;0.90;;;;;;;;;;5046772;28;20208;-34
2022/07/05 10:33:52;;;;;;;1.35;0.80;;;;;;;;;;5039922;28;20268;-34
2022/07/05 10:36:19;;;;;;;1.35;0.90;;;;;;;;;;5046567;28;20235;-32
2022/07/05 10:38:47;;;;;;;0.93;0.82;;;;;;;;;;5047094;28;20197;-33
2022/07/05 10:41:16;;;;;;;5.13;1.13;;;;;;;;;;5055103;28;20301;-35
2022/07/05 10:43:45;;;;;;;0.82;0.82;;;;;;;;;;5047773;28;20216;-35
2022/07/05 10:46:19;;;;;;;1.00;1.00;;;;;;;;;;5035922;28;20228;-32
2022/07/05 10:48:46;;;;;;;0.90;0.90;;;;;;;;;;5035280;28;20310;-33
2022/07/05 10:51:16;;;;;;;1.70;1.05;;;;;;;;;;5034100;28;20215;-34
2022/07/05 10:54:03;;;;;;;0.70;0.70;;;;;;;;;;5040145;28;20197;-33
2022/07/05 10:56:30;;;;;;;1.13;0.90;;;;;;;;;;5048570;28;20227;-34
2022/07/05 10:59:05;;;;;;;1.40;0.80;;;;;;;;;;5034199;28;20208;-31
2022/07/05 11:01:35;;;;;;;1.88;1.15;;;;;;;;;;5034971;28;20217;-36
2022/07/05 11:04:23;;;;;;;1.65;0.93;;;;;;;;;;5038411;28;20205;-34
2022/07/05 11:06:50;;;;;;;1.55;0.80;;;;;;;;;;5044222;28;20224;-35
2022/07/05 11:09:21;;;;;;;2.25;0.90;;;;;;;;;;5047762;28;20220;-35
2022/07/05 11:11:49;;;;;;;0.95;0.88;;;;;;;;;;5046961;28;20216;-33
2022/07/05 11:14:32;;;;;;;3.00;0.85;;;;;;;;;;5055136;28;20204;-34
2022/07/05 11:17:13;;;;;;;1.80;0.90;;;;;;;;;;5037036;28;20236;-34
2022/07/05 11:19:55;;;;;;;1.60;0.88;;;;;;;;;;5038968;28;20208;-33
2022/07/05 11:22:22;;;;;;;1.45;0.90;;;;;;;;;;5041983;28;20203;-33
2022/07/05 11:24:50;;;;;;;1.52;0.73;;;;;;;;;;5034126;28;20205;-34
2022/07/05 11:27:17;;;;;;;1.27;0.90;;;;;;;;;;5052631;28;20231;-31
2022/07/05 11:29:44;;;;;;;1.17;1.08;;;;;;;;;;5040313;28;20212;-34
2022/07/05 11:32:14;;;;;;;2.25;0.80;;;;;;;;;;5051408;28;20214;-34
2022/07/05 11:34:41;;;;;;;2.25;0.90;;;;;;;;;;5035912;28;20204;-32
2022/07/05 11:37:24;;;;;;;2.15;0.90;;;;;;;;;;5050957;28;20229;-35
2022/07/05 11:40:10;;;;;;;1.02;0.90;;;;;;;;;;5053711;28;20236;-36
2022/07/05 11:42:39;;;;;;;1.45;1.00;;;;;;;;;;5049468;28;20205;-34
2022/07/05 11:45:07;;;;;;;1.35;0.77;;;;;;;;;;5053259;28;20209;-34
2022/07/05 11:47:36;;;;;;;1.92;0.88;;;;;;;;;;5054506;28;20229;-31
2022/07/05 11:50:04;;;;;;;2.58;0.80;;;;;;;;;;5045328;28;20200;-32
2022/07/05 11:52:31;;;;;;;0.70;0.70;;;;;;;;;;5047867;28;20200;-32
2022/07/05 11:54:59;;;;;;;2.75;0.85;;;;;;;;;;5043616;28;20220;-33
2022/07/05 11:57:26;;;;;;;0.77;0.77;;;;;;;;;;5045339;28;20233;-32
2022/07/05 11:59:56;;;;;;;0.82;0.75;;;;;;;;;;5042418;28;20207;-32
2022/07/05 12:02:23;;;;;;;0.70;0.70;;;;;;;;;;5032591;28;20208;-35
2022/07/05 12:04:52;;;;;;;2.03;0.80;;;;;;;;;;5039117;28;20204;-31
2022/07/05 12:07:26;;;;;;;1.73;0.90;;;;;;;;;;5038019;28;20224;-33
2022/07/05 12:12:43;;;;;;;2.75;1.00;;;;;;;;;;5032803;28;20232;-35
2022/07/05 12:15:11;;;;;;;1.08;0.98;;;;;;;;;;5035799;28;21665;-32
2022/07/05 12:17:39;;;;;;;1.27;0.70;;;;;;;;;;5039811;28;20231;-34
2022/07/05 12:20:09;;;;;;;0.63;0.63;;;;;;;;;;5035571;28;20206;-30
2022/07/05 12:22:37;;;;;;;1.30;0.65;;;;;;;;;;5044850;28;20208;-33
2022/07/05 12:25:06;;;;;;;1.98;0.75;;;;;;;;;;5037706;28;20207;-34
2022/07/05 12:27:34;;;;;;;1.48;0.70;;;;;;;;;;5044904;28;20589;-33
2022/07/05 12:30:03;;;;;;;0.70;0.70;;;;;;;;;;5036884;28;20213;-32
2022/07/05 12:32:30;;;;;;;1.88;0.57;;;;;;;;;;5047275;28;20200;-36
2022/07/05 12:34:58;;;;;;;1.45;0.80;;;;;;;;;;5039450;28;20223;-36
2022/07/05 12:37:27;;;;;;;1.05;0.63;;;;;;;;;;5039052;28;20234;-35
2022/07/05 12:40:03;;;;;;;0.88;0.80;;;;;;;;;;5033790;28;20197;-36
2022/07/05 12:42:34;;;;;;;2.00;0.80;;;;;;;;;;5033211;28;20559;-32
2022/07/05 12:45:08;;;;;;;0.93;0.80;;;;;;;;;;5039794;28;20215;-32
2022/07/05 12:47:38;;;;;;;1.83;0.70;;;;;;;;;;5039067;28;20220;-33
2022/07/05 12:50:05;;;;;;;0.85;0.60;;;;;;;;;;5044225;28;20265;-35
2022/07/05 12:52:34;;;;;;;1.27;0.80;;;;;;;;;;5033617;28;20668;-34
2022/07/05 12:58:04;;;;;;;1.20;0.70;;;;;;;;;;5037459;28;20235;-36
2022/07/05 13:00:31;;;;;;;0.63;0.63;;;;;;;;;;5044700;28;20285;-37
2022/07/05 13:02:59;;;;;;;1.23;0.80;;;;;;;;;;5051206;28;20210;-34
2022/07/05 13:05:26;;;;;;;0.57;0.50;;;;;;;;;;5039919;28;20205;-34
2022/07/05 13:08:07;;;;;;;1.63;0.80;;;;;;;;;;5036675;28;20219;-34
2022/07/05 13:10:34;;;;;;;2.38;0.90;;;;;;;;;;5033027;28;20214;-36
2022/07/05 13:13:08;;;;;;;1.25;0.70;;;;;;;;;;5038189;28;20726;-35
2022/07/05 13:15:38;;;;;;;1.05;0.73;;;;;;;;;;5040154;28;20211;-36
2022/07/05 13:18:05;;;;;;;1.25;0.75;;;;;;;;;;5036755;28;20279;-35
2022/07/05 13:20:32;;;;;;;1.13;0.50;;;;;;;;;;5037494;28;20205;-35
2022/07/05 13:23:01;;;;;;;2.55;0.80;;;;;;;;;;5036031;28;20211;-36
2022/07/05 13:25:28;;;;;;;4.32;1.00;;;;;;;;;;5038804;28;20205;-35
2022/07/05 13:27:55;;;;;;;0.77;0.77;;;;;;;;;;5049182;28;20225;-34
2022/07/05 13:30:22;;;;;;;0.90;0.80;;;;;;;;;;5046149;28;20205;-35
2022/07/05 13:32:50;;;;;;;1.75;0.75;;;;;;;;;;5034160;28;20200;-33
2022/07/05 13:35:17;;;;;;;2.85;0.80;;;;;;;;;;5049645;28;20296;-35
2022/07/05 13:37:44;;;;;;;1.27;0.73;;;;;;;;;;5044929;28;20231;-35
2022/07/05 13:40:13;;;;;;;1.63;0.82;;;;;;;;;;5034301;28;20244;-33
2022/07/05 13:42:40;;;;;;;0.93;0.80;;;;;;;;;;5042773;28;20204;-34
2022/07/05 13:45:08;;;;;;;1.20;0.75;;;;;;;;;;5038806;28;20206;-34
2022/07/05 13:47:36;;;;;;;2.55;0.70;;;;;;;;;;5047136;28;20216;-35
2022/07/05 13:52:48;;;;;;;1.45;0.80;;;;;;;;;;5034136;28;20209;-36
2022/07/05 13:55:16;;;;;;;0.80;0.80;;;;;;;;;;5040254;28;20205;-36
2022/07/05 13:57:45;;;;;;;1.73;0.90;;;;;;;;;;5042908;28;20814;-32
2022/07/05 14:00:13;;;;;;;1.73;1.00;;;;;;;;;;5043542;28;20201;-36
2022/07/05 14:02:40;;;;;;;0.70;0.70;;;;;;;;;;5045491;28;20201;-35
2022/07/05 14:05:08;;;;;;;1.17;0.90;;;;;;;;;;5048129;28;20217;-33
2022/07/05 14:07:35;;;;;;;2.90;1.70;;;;;;;;;;5042974;28;20229;-32
2022/07/05 14:10:02;;;;;;;2.35;1.15;;;;;;;;;;5034686;28;20225;-33
2022/07/05 14:12:31;;;;;;;1.65;0.90;;;;;;;;;;5033261;28;20209;-33
2022/07/05 14:14:58;;;;;;;1.70;0.93;;;;;;;;;;5037887;28;20543;-36
2022/07/05 14:17:25;;;;;;;1.35;0.82;;;;;;;;;;5052308;28;20241;-37
2022/07/05 14:19:52;;;;;;;12.60;1.73;;;;;;;;;;5035869;28;20209;-36
2022/07/05 14:22:19;;;;;;;1.90;0.90;;;;;;;;;;5032156;28;20210;-36
2022/07/05 14:24:46;;;;;;;0.63;0.63;;;;;;;;;;5047503;28;20213;-34
2022/07/05 14:27:13;;;;;;;3.45;0.93;;;;;;;;;;5046875;28;20228;-33
2022/07/05 14:29:44;;;;;;;5.13;1.10;;;;;;;;;;5031264;28;20229;-35
2022/07/05 14:32:11;;;;;;;0.93;0.60;;;;;;;;;;5042546;28;20208;-33
2022/07/05 14:34:38;;;;;;;1.10;0.80;;;;;;;;;;5046128;28;20204;-33
2022/07/05 14:37:06;;;;;;;2.40;0.90;;;;;;;;;;5043877;28;20942;-35
2022/07/05 14:39:33;;;;;;;4.93;0.90;;;;;;;;;;5051807;28;20194;-33
2022/07/05 14:42:00;;;;;;;0.85;0.85;;;;;;;;;;5051655;28;20301;-31
2022/07/05 14:44:27;;;;;;;1.95;0.80;;;;;;;;;;5036808;28;20209;-36
2022/07/05 14:46:55;;;;;;;1.58;0.90;;;;;;;;;;5040224;28;20218;-34
2022/07/05 14:49:23;;;;;;;1.35;0.82;;;;;;;;;;5033100;28;20707;-34
2022/07/05 14:51:50;;;;;;;1.40;0.95;;;;;;;;;;5040978;28;20212;-36
2022/07/05 14:54:17;;;;;;;0.95;0.95;;;;;;;;;;5043159;28;20200;-37
2022/07/05 14:56:44;;;;;;;2.38;1.02;;;;;;;;;;5038825;28;20230;-35
2022/07/05 14:59:11;;;;;;;1.45;0.93;;;;;;;;;;5278368;22;20244;-33
2022/07/05 15:01:38;;;;;;;1.02;0.93;;;;;;;;;;5047301;28;20205;-31
2022/07/05 15:04:07;;;;;;;1.92;0.80;;;;;;;;;;5038282;28;20212;-35
2022/07/05 15:06:34;;;;;;;2.15;0.90;;;;;;;;;;5052103;28;20230;-35
2022/07/05 15:09:01;;;;;;;0.95;0.80;;;;;;;;;;5056529;28;20232;-34